Time;durP1;ratioP1;P1;durP2;ratioP2;P2;SDS_P1;SDS_P2;PMS_P1;PMS_P2;Temp;Humidity;BMP_temperature;BMP_pressure;BME280_temperature;BME280_humidity;BME280_pressure;Samples;Min_cycle;Max_cycle;Signal;HPM_P1;HPM_P2
2022/05/30 00:02:10;;;;;;;0.60;0.60;;;;;;;;;;5062757;28;20459;-73
2022/05/30 00:04:37;;;;;;;0.80;0.80;;;;;;;;;;5050731;28;20491;-73
2022/05/30 00:07:05;;;;;;;0.70;0.60;;;;;;;;;;5036084;28;20513;-74
2022/05/30 00:09:33;;;;;;;0.60;0.60;;;;;;;;;;5053941;28;20448;-73
2022/05/30 00:12:02;;;;;;;0.60;0.53;;;;;;;;;;5057499;28;20453;-73
2022/05/30 00:14:31;;;;;;;0.60;0.60;;;;;;;;;;5053384;28;20983;-73
2022/05/30 00:16:58;;;;;;;0.60;0.60;;;;;;;;;;5053138;28;20924;-73
2022/05/30 00:19:25;;;;;;;0.70;0.60;;;;;;;;;;5061068;28;20456;-73
2022/05/30 00:21:53;;;;;;;0.60;0.57;;;;;;;;;;5068715;28;20481;-73
2022/05/30 00:24:20;;;;;;;0.70;0.60;;;;;;;;;;5073505;28;20434;-73
2022/05/30 00:26:46;;;;;;;0.60;0.60;;;;;;;;;;5056696;28;20478;-73
2022/05/30 00:29:13;;;;;;;0.70;0.60;;;;;;;;;;5073914;28;20521;-73
2022/05/30 00:31:42;;;;;;;0.60;0.60;;;;;;;;;;5053116;28;20452;-73
2022/05/30 00:34:08;;;;;;;0.70;0.60;;;;;;;;;;5043508;28;20881;-73
2022/05/30 00:36:37;;;;;;;0.70;0.60;;;;;;;;;;5053277;28;20479;-72
2022/05/30 00:39:04;;;;;;;0.60;0.60;;;;;;;;;;5053091;28;20480;-74
2022/05/30 00:41:32;;;;;;;0.63;0.60;;;;;;;;;;5054186;28;20432;-73
2022/05/30 00:43:58;;;;;;;0.70;0.60;;;;;;;;;;5053302;28;20493;-72
2022/05/30 00:46:25;;;;;;;0.60;0.60;;;;;;;;;;5053269;28;20432;-72
2022/05/30 00:48:56;;;;;;;0.60;0.53;;;;;;;;;;5058488;28;20972;-72
2022/05/30 00:51:24;;;;;;;0.70;0.60;;;;;;;;;;5071742;28;20539;-74
2022/05/30 00:53:54;;;;;;;0.60;0.60;;;;;;;;;;5054420;28;20467;-72
2022/05/30 00:56:22;;;;;;;0.60;0.50;;;;;;;;;;5035423;28;20519;-73
2022/05/30 00:58:50;;;;;;;0.70;0.60;;;;;;;;;;5035815;28;20542;-73
2022/05/30 01:01:19;;;;;;;0.70;0.60;;;;;;;;;;5052369;28;20447;-73
2022/05/30 01:06:36;;;;;;;0.70;0.60;;;;;;;;;;5073707;28;20479;-72
2022/05/30 01:09:06;;;;;;;0.60;0.50;;;;;;;;;;5072276;28;20443;-73
2022/05/30 01:11:52;;;;;;;0.63;0.53;;;;;;;;;;5056235;28;20959;-71
2022/05/30 01:14:22;;;;;;;0.70;0.60;;;;;;;;;;5072946;28;20475;-71
2022/05/30 01:16:52;;;;;;;0.60;0.50;;;;;;;;;;5071964;28;20448;-74
2022/05/30 01:19:37;;;;;;;0.60;0.60;;;;;;;;;;5072426;28;20443;-73
2022/05/30 01:22:29;;;;;;;0.70;0.60;;;;;;;;;;5072926;28;20508;-73
2022/05/30 01:25:03;;;;;;;0.70;0.60;;;;;;;;;;5070282;28;20450;-72
2022/05/30 01:27:53;;;;;;;0.67;0.60;;;;;;;;;;5060757;28;20455;-72
2022/05/30 01:30:28;;;;;;;0.60;0.50;;;;;;;;;;5071576;28;20450;-72
2022/05/30 01:32:58;;;;;;;0.70;0.60;;;;;;;;;;5072096;28;20399;-73
2022/05/30 01:35:30;;;;;;;0.70;0.60;;;;;;;;;;5072268;28;20502;-73
2022/05/30 01:38:03;;;;;;;0.60;0.60;;;;;;;;;;5072071;28;20447;-73
2022/05/30 01:40:33;;;;;;;0.70;0.60;;;;;;;;;;5071608;28;20439;-72
2022/05/30 01:43:02;;;;;;;0.70;0.60;;;;;;;;;;5053413;28;20449;-72
2022/05/30 01:45:37;;;;;;;0.60;0.60;;;;;;;;;;5075530;28;20447;-72
2022/05/30 01:48:06;;;;;;;0.70;0.60;;;;;;;;;;5054533;28;20468;-72
2022/05/30 01:50:36;;;;;;;0.70;0.60;;;;;;;;;;5056754;28;20462;-72
2022/05/30 01:53:17;;;;;;;0.60;0.60;;;;;;;;;;5056809;28;20494;-73
2022/05/30 01:56:14;;;;;;;0.70;0.60;;;;;;;;;;5056335;28;20522;-73
2022/05/30 01:58:44;;;;;;;0.70;0.60;;;;;;;;;;5056126;28;20452;-72
2022/05/30 02:01:33;;;;;;;0.60;0.60;;;;;;;;;;5055272;28;20486;-73
2022/05/30 02:04:03;;;;;;;0.60;0.60;;;;;;;;;;5056250;28;20784;-73
2022/05/30 02:06:35;;;;;;;0.60;0.60;;;;;;;;;;5055163;28;20881;-72
2022/05/30 02:09:08;;;;;;;0.70;0.60;;;;;;;;;;5055844;28;20443;-72
2022/05/30 02:11:36;;;;;;;0.70;0.60;;;;;;;;;;5057917;28;20440;-73
2022/05/30 02:14:34;;;;;;;0.70;0.60;;;;;;;;;;5058588;28;20483;-73
2022/05/30 02:17:08;;;;;;;0.70;0.60;;;;;;;;;;5076319;28;20935;-73
2022/05/30 02:19:37;;;;;;;0.60;0.60;;;;;;;;;;5060277;28;20973;-72
2022/05/30 02:22:09;;;;;;;0.70;0.60;;;;;;;;;;5056281;28;20464;-73
2022/05/30 02:24:38;;;;;;;0.70;0.60;;;;;;;;;;5055379;28;20912;-73
2022/05/30 02:27:05;;;;;;;0.70;0.60;;;;;;;;;;5060114;28;20442;-72
2022/05/30 02:29:33;;;;;;;0.60;0.50;;;;;;;;;;5060644;28;20534;-73
2022/05/30 02:32:01;;;;;;;0.60;0.50;;;;;;;;;;5038518;28;20440;-73
2022/05/30 02:37:16;;;;;;;0.60;0.60;;;;;;;;;;5054651;28;20454;-72
2022/05/30 02:39:44;;;;;;;0.63;0.60;;;;;;;;;;5038066;28;20428;-72
2022/05/30 02:42:29;;;;;;;0.70;0.60;;;;;;;;;;5055352;28;20486;-72
2022/05/30 02:44:59;;;;;;;0.70;0.60;;;;;;;;;;5054397;28;20443;-74
2022/05/30 02:47:26;;;;;;;0.70;0.60;;;;;;;;;;5055395;28;20486;-72
2022/05/30 02:50:07;;;;;;;0.60;0.60;;;;;;;;;;5070526;28;20822;-72
2022/05/30 02:52:34;;;;;;;0.70;0.60;;;;;;;;;;5053519;28;20472;-71
2022/05/30 02:55:01;;;;;;;0.70;0.60;;;;;;;;;;5070917;28;20471;-72
2022/05/30 02:57:36;;;;;;;0.60;0.60;;;;;;;;;;5055227;28;20519;-73
2022/05/30 03:00:06;;;;;;;0.60;0.60;;;;;;;;;;5054201;28;20440;-72
2022/05/30 03:02:38;;;;;;;0.60;0.50;;;;;;;;;;5069897;28;20538;-73
2022/05/30 03:05:05;;;;;;;0.63;0.60;;;;;;;;;;5055932;28;20412;-72
2022/05/30 03:07:33;;;;;;;0.60;0.60;;;;;;;;;;5053939;28;20460;-72
2022/05/30 03:10:06;;;;;;;0.60;0.50;;;;;;;;;;5057089;28;20790;-72
2022/05/30 03:12:43;;;;;;;0.60;0.60;;;;;;;;;;5074027;28;20439;-72
2022/05/30 03:15:09;;;;;;;0.60;0.50;;;;;;;;;;5074549;28;21061;-72
2022/05/30 03:17:37;;;;;;;0.60;0.60;;;;;;;;;;5074351;28;20435;-72
2022/05/30 03:20:04;;;;;;;0.60;0.60;;;;;;;;;;5074160;28;20787;-72
2022/05/30 03:22:31;;;;;;;0.60;0.60;;;;;;;;;;5073929;28;20467;-72
2022/05/30 03:25:18;;;;;;;0.70;0.60;;;;;;;;;;5068631;28;20442;-72
2022/05/30 03:27:51;;;;;;;0.60;0.60;;;;;;;;;;5038120;28;20451;-72
2022/05/30 03:30:17;;;;;;;0.70;0.60;;;;;;;;;;5054672;28;20978;-72
2022/05/30 03:32:45;;;;;;;0.60;0.60;;;;;;;;;;5054871;28;20440;-72
2022/05/30 03:35:13;;;;;;;0.70;0.60;;;;;;;;;;5065443;28;20451;-73
2022/05/30 03:37:46;;;;;;;0.70;0.60;;;;;;;;;;5074119;28;20474;-72
2022/05/30 03:40:37;;;;;;;0.60;0.60;;;;;;;;;;5075092;28;20526;-72
2022/05/30 03:43:26;;;;;;;0.70;0.60;;;;;;;;;;5057304;28;20949;-73
2022/05/30 03:45:58;;;;;;;0.60;0.60;;;;;;;;;;5054557;28;20991;-73
2022/05/30 03:48:26;;;;;;;0.60;0.50;;;;;;;;;;5070225;28;20453;-73
2022/05/30 03:50:54;;;;;;;0.60;0.60;;;;;;;;;;5074592;28;20462;-72
2022/05/30 03:53:21;;;;;;;0.70;0.60;;;;;;;;;;5057378;28;20416;-73
2022/05/30 03:55:50;;;;;;;0.60;0.53;;;;;;;;;;5073591;28;20522;-72
2022/05/30 03:58:17;;;;;;;0.60;0.50;;;;;;;;;;5073611;28;20432;-73
2022/05/30 04:00:44;;;;;;;0.70;0.70;;;;;;;;;;5056848;28;20500;-73
2022/05/30 04:03:14;;;;;;;0.60;0.60;;;;;;;;;;5072253;28;20447;-73
2022/05/30 04:05:43;;;;;;;0.60;0.60;;;;;;;;;;5072737;28;20423;-73
2022/05/30 04:08:11;;;;;;;0.70;0.60;;;;;;;;;;5073160;28;20908;-72
2022/05/30 04:10:58;;;;;;;0.60;0.53;;;;;;;;;;5067141;28;20439;-72
2022/05/30 04:13:43;;;;;;;0.60;0.57;;;;;;;;;;5072946;28;20791;-73
2022/05/30 04:16:35;;;;;;;0.60;0.60;;;;;;;;;;5073753;28;20444;-73
2022/05/30 04:19:07;;;;;;;0.60;0.60;;;;;;;;;;5054301;28;20462;-73
2022/05/30 04:21:34;;;;;;;0.60;0.60;;;;;;;;;;5060490;28;20547;-73
2022/05/30 04:24:02;;;;;;;0.60;0.60;;;;;;;;;;5061616;28;20444;-73
2022/05/30 04:26:37;;;;;;;0.60;0.60;;;;;;;;;;5053587;28;20439;-73
2022/05/30 04:29:07;;;;;;;0.60;0.60;;;;;;;;;;5053168;28;20432;-74
2022/05/30 04:31:52;;;;;;;0.60;0.60;;;;;;;;;;5052500;28;20452;-73
2022/05/30 04:34:20;;;;;;;0.60;0.50;;;;;;;;;;5054644;28;20472;-74
2022/05/30 04:36:47;;;;;;;0.60;0.50;;;;;;;;;;5072763;28;20520;-73
2022/05/30 04:39:14;;;;;;;0.70;0.60;;;;;;;;;;5070011;28;20435;-73
2022/05/30 04:41:43;;;;;;;0.60;0.60;;;;;;;;;;5071061;28;20908;-73
2022/05/30 04:44:30;;;;;;;0.70;0.60;;;;;;;;;;5072175;28;20924;-74
2022/05/30 04:47:32;;;;;;;0.60;0.60;;;;;;;;;;5059890;28;20447;-72
2022/05/30 04:49:59;;;;;;;0.60;0.60;;;;;;;;;;5055031;28;20442;-73
2022/05/30 04:52:29;;;;;;;0.73;0.73;;;;;;;;;;5062311;28;20468;-73
2022/05/30 04:54:57;;;;;;;0.67;0.60;;;;;;;;;;5071314;28;20476;-73
2022/05/30 04:57:43;;;;;;;0.70;0.60;;;;;;;;;;5072147;28;20516;-73
2022/05/30 05:00:27;;;;;;;0.70;0.60;;;;;;;;;;5071539;28;20552;-72
2022/05/30 05:02:55;;;;;;;0.60;0.60;;;;;;;;;;5072089;28;20475;-71
2022/05/30 05:05:22;;;;;;;0.60;0.60;;;;;;;;;;5071853;28;20428;-74
2022/05/30 05:07:53;;;;;;;0.60;0.60;;;;;;;;;;5069836;28;20470;-71
2022/05/30 05:10:33;;;;;;;0.60;0.60;;;;;;;;;;5056717;28;20439;-73
2022/05/30 05:13:31;;;;;;;0.70;0.60;;;;;;;;;;5052574;28;20462;-71
2022/05/30 05:16:22;;;;;;;0.63;0.60;;;;;;;;;;5073300;28;20813;-72
2022/05/30 05:18:50;;;;;;;0.70;0.60;;;;;;;;;;5071487;28;20519;-72
2022/05/30 05:21:18;;;;;;;0.70;0.60;;;;;;;;;;5072306;28;20469;-72
2022/05/30 05:23:45;;;;;;;0.70;0.60;;;;;;;;;;5054848;28;20475;-74
2022/05/30 05:26:12;;;;;;;0.70;0.60;;;;;;;;;;5036681;28;20873;-73
2022/05/30 05:29:03;;;;;;;0.60;0.60;;;;;;;;;;5052464;28;20436;-73
2022/05/30 05:31:32;;;;;;;0.70;0.70;;;;;;;;;;5051570;28;20470;-72
2022/05/30 05:34:01;;;;;;;0.70;0.60;;;;;;;;;;5052102;28;20812;-72
2022/05/30 05:36:30;;;;;;;0.70;0.60;;;;;;;;;;5056645;28;20814;-73
2022/05/30 05:38:57;;;;;;;0.70;0.60;;;;;;;;;;5055530;28;20484;-73
2022/05/30 05:41:39;;;;;;;0.70;0.60;;;;;;;;;;5064533;28;20466;-73
2022/05/30 05:44:14;;;;;;;0.70;0.60;;;;;;;;;;5052390;28;20431;-72
2022/05/30 05:46:42;;;;;;;0.70;0.60;;;;;;;;;;5035390;28;20435;-74
2022/05/30 05:49:09;;;;;;;0.70;0.60;;;;;;;;;;5068193;28;20454;-73
2022/05/30 05:51:38;;;;;;;0.70;0.60;;;;;;;;;;5071996;28;20462;-73
2022/05/30 05:54:07;;;;;;;0.70;0.70;;;;;;;;;;5073224;28;20460;-73
2022/05/30 05:56:35;;;;;;;0.70;0.60;;;;;;;;;;5072186;28;20447;-73
2022/05/30 05:59:08;;;;;;;0.70;0.60;;;;;;;;;;5056039;28;20479;-74
2022/05/30 06:01:37;;;;;;;0.70;0.60;;;;;;;;;;5065009;28;20462;-73
2022/05/30 06:04:05;;;;;;;0.70;0.70;;;;;;;;;;5035816;28;20823;-73
2022/05/30 06:06:49;;;;;;;0.70;0.70;;;;;;;;;;5058436;28;20497;-74
2022/05/30 06:09:29;;;;;;;0.70;0.60;;;;;;;;;;5069110;28;20534;-73
2022/05/30 06:12:04;;;;;;;0.70;0.60;;;;;;;;;;5051958;28;20514;-74
2022/05/30 06:14:32;;;;;;;0.70;0.60;;;;;;;;;;5053257;28;20601;-75
2022/05/30 06:17:02;;;;;;;0.70;0.60;;;;;;;;;;5055117;28;20543;-74
2022/05/30 06:19:31;;;;;;;0.70;0.60;;;;;;;;;;5055073;28;20550;-74
2022/05/30 06:21:58;;;;;;;0.70;0.60;;;;;;;;;;5035759;28;20483;-75
2022/05/30 06:24:29;;;;;;;0.70;0.60;;;;;;;;;;5051415;28;20451;-74
2022/05/30 06:27:17;;;;;;;0.70;0.60;;;;;;;;;;5066370;28;20450;-75
2022/05/30 06:30:04;;;;;;;0.70;0.60;;;;;;;;;;5047292;28;20434;-75
2022/05/30 06:32:32;;;;;;;0.70;0.60;;;;;;;;;;5075592;28;20515;-75
2022/05/30 06:35:08;;;;;;;0.80;0.80;;;;;;;;;;5074516;28;20494;-75
2022/05/30 06:37:38;;;;;;;0.70;0.70;;;;;;;;;;5059156;28;20846;-75
2022/05/30 06:40:07;;;;;;;0.70;0.60;;;;;;;;;;5075590;28;21027;-75
2022/05/30 06:42:59;;;;;;;0.70;0.70;;;;;;;;;;5075343;28;20450;-76
2022/05/30 06:45:29;;;;;;;0.70;0.70;;;;;;;;;;5075710;28;20433;-76
2022/05/30 06:48:16;;;;;;;0.80;0.80;;;;;;;;;;5076991;28;20431;-75
2022/05/30 06:50:51;;;;;;;0.80;0.73;;;;;;;;;;5055396;28;20530;-75
2022/05/30 06:53:19;;;;;;;0.70;0.60;;;;;;;;;;5055674;28;20436;-75
2022/05/30 06:55:56;;;;;;;0.70;0.70;;;;;;;;;;5064516;28;20469;-75
2022/05/30 06:58:28;;;;;;;0.70;0.60;;;;;;;;;;5065150;28;20446;-76
2022/05/30 07:00:59;;;;;;;0.77;0.77;;;;;;;;;;5076767;28;20899;-74
2022/05/30 07:03:40;;;;;;;0.80;0.80;;;;;;;;;;5077706;28;20464;-75
2022/05/30 07:06:27;;;;;;;0.70;0.70;;;;;;;;;;5079524;28;20443;-76
2022/05/30 07:09:15;;;;;;;0.70;0.60;;;;;;;;;;5079261;28;20980;-74
2022/05/30 07:11:50;;;;;;;0.70;0.70;;;;;;;;;;5075564;28;20438;-75
2022/05/30 07:14:20;;;;;;;0.70;0.70;;;;;;;;;;5059844;28;20456;-73
2022/05/30 07:16:49;;;;;;;0.70;0.60;;;;;;;;;;5076504;28;20478;-73
2022/05/30 07:19:18;;;;;;;0.70;0.70;;;;;;;;;;5061532;28;20976;-75
2022/05/30 07:21:50;;;;;;;0.70;0.70;;;;;;;;;;5060272;28;20483;-77
2022/05/30 07:24:52;;;;;;;0.70;0.67;;;;;;;;;;5075677;28;20452;-77
2022/05/30 07:27:37;;;;;;;0.70;0.70;;;;;;;;;;5056869;28;21021;-75
2022/05/30 07:30:23;;;;;;;0.77;0.70;;;;;;;;;;5056517;28;20809;-75
2022/05/30 07:33:08;;;;;;;0.70;0.60;;;;;;;;;;5058688;28;20535;-76
2022/05/30 07:36:08;;;;;;;0.70;0.70;;;;;;;;;;5074605;28;20494;-74
2022/05/30 07:38:58;;;;;;;0.70;0.60;;;;;;;;;;5072956;28;20440;-75
2022/05/30 07:41:42;;;;;;;0.70;0.60;;;;;;;;;;5074527;28;21008;-75
2022/05/30 07:44:33;;;;;;;0.70;0.70;;;;;;;;;;5077319;28;20442;-75
2022/05/30 07:47:27;;;;;;;0.70;0.70;;;;;;;;;;5065759;28;20537;-75
2022/05/30 07:50:14;;;;;;;0.70;0.60;;;;;;;;;;5085965;28;20471;-76
2022/05/30 07:52:55;;;;;;;0.70;0.67;;;;;;;;;;5074154;28;20510;-75
2022/05/30 07:55:34;;;;;;;0.70;0.70;;;;;;;;;;5084490;28;20468;-75
2022/05/30 07:58:07;;;;;;;0.70;0.60;;;;;;;;;;5080091;28;20452;-77
2022/05/30 08:00:40;;;;;;;0.70;0.70;;;;;;;;;;5088123;28;20503;-77
2022/05/30 08:03:16;;;;;;;0.70;0.60;;;;;;;;;;5080396;28;20451;-76
2022/05/30 08:06:01;;;;;;;0.70;0.70;;;;;;;;;;5095390;28;20469;-75
2022/05/30 08:08:51;;;;;;;0.80;0.80;;;;;;;;;;5093678;28;20439;-75
2022/05/30 08:11:18;;;;;;;0.70;0.70;;;;;;;;;;5079247;28;20427;-79
2022/05/30 08:13:50;;;;;;;0.80;0.80;;;;;;;;;;5057924;28;20462;-79
2022/05/30 08:16:18;;;;;;;0.70;0.70;;;;;;;;;;5073961;28;20443;-78
2022/05/30 08:19:05;;;;;;;0.70;0.70;;;;;;;;;;5064843;28;20470;-79
2022/05/30 08:21:41;;;;;;;0.70;0.70;;;;;;;;;;5077730;28;20463;-77
2022/05/30 08:24:10;;;;;;;0.70;0.60;;;;;;;;;;5091857;28;20439;-77
2022/05/30 08:26:44;;;;;;;0.80;0.70;;;;;;;;;;5071512;28;20851;-79
2022/05/30 08:29:37;;;;;;;0.70;0.70;;;;;;;;;;5056496;28;20527;-75
2022/05/30 08:32:06;;;;;;;0.70;0.70;;;;;;;;;;5065221;28;20997;-79
2022/05/30 08:34:58;;;;;;;0.70;0.60;;;;;;;;;;5060638;28;20977;-78
2022/05/30 08:37:30;;;;;;;0.70;0.63;;;;;;;;;;5055142;28;20458;-78
2022/05/30 08:42:50;;;;;;;0.77;0.70;;;;;;;;;;5067598;28;20436;-76
2022/05/30 08:45:45;;;;;;;0.70;0.70;;;;;;;;;;5065883;28;20448;-79
2022/05/30 08:48:25;;;;;;;0.70;0.60;;;;;;;;;;5050422;28;20452;-79
2022/05/30 08:51:02;;;;;;;0.70;0.60;;;;;;;;;;5063255;28;20471;-79
2022/05/30 08:53:56;;;;;;;0.70;0.70;;;;;;;;;;5063827;28;20446;-80
2022/05/30 08:56:26;;;;;;;0.70;0.70;;;;;;;;;;5066283;28;20546;-79
2022/05/30 08:59:27;;;;;;;0.80;0.70;;;;;;;;;;5086980;28;20466;-78
2022/05/30 09:01:57;;;;;;;0.70;0.70;;;;;;;;;;5082591;28;20452;-78
2022/05/30 09:04:40;;;;;;;0.70;0.60;;;;;;;;;;5084339;28;20977;-77
2022/05/30 09:07:09;;;;;;;0.70;0.70;;;;;;;;;;5067117;28;20478;-79
2022/05/30 09:09:42;;;;;;;0.70;0.60;;;;;;;;;;5066814;28;20960;-78
2022/05/30 09:12:22;;;;;;;0.70;0.70;;;;;;;;;;5071012;28;20434;-79
2022/05/30 09:15:07;;;;;;;0.70;0.60;;;;;;;;;;5068337;28;20446;-78
2022/05/30 09:17:37;;;;;;;0.70;0.70;;;;;;;;;;5065399;28;20445;-79
2022/05/30 09:20:08;;;;;;;0.70;0.60;;;;;;;;;;5066671;28;20443;-78
2022/05/30 09:22:35;;;;;;;0.73;0.70;;;;;;;;;;5082629;28;20498;-81
2022/05/30 09:28:07;;;;;;;0.70;0.60;;;;;;;;;;5063532;28;20459;-78
2022/05/30 09:30:58;;;;;;;0.70;0.60;;;;;;;;;;5062099;28;20431;-79
2022/05/30 09:33:44;;;;;;;0.80;0.80;;;;;;;;;;5065832;28;20481;-78
2022/05/30 09:36:46;;;;;;;0.80;0.70;;;;;;;;;;5063133;28;20566;-79
2022/05/30 09:39:41;;;;;;;0.70;0.70;;;;;;;;;;5052667;28;20437;-78
2022/05/30 09:42:22;;;;;;;0.70;0.70;;;;;;;;;;5079422;28;20863;-79
2022/05/30 09:44:53;;;;;;;0.70;0.70;;;;;;;;;;5063569;28;20449;-80
2022/05/30 09:47:59;;;;;;;0.70;0.70;;;;;;;;;;5058958;28;20621;-79
2022/05/30 09:50:40;;;;;;;0.70;0.60;;;;;;;;;;5042711;28;20435;-80
2022/05/30 09:53:07;;;;;;;0.70;0.67;;;;;;;;;;5061520;28;20448;-80
2022/05/30 09:55:36;;;;;;;0.77;0.70;;;;;;;;;;5079474;28;20554;-80
2022/05/30 09:58:10;;;;;;;0.70;0.70;;;;;;;;;;5072208;28;20475;-78
2022/05/30 10:00:54;;;;;;;0.70;0.60;;;;;;;;;;5047067;28;20501;-80
2022/05/30 10:03:28;;;;;;;0.70;0.70;;;;;;;;;;5061815;28;20432;-79
2022/05/30 10:06:20;;;;;;;0.70;0.60;;;;;;;;;;5065486;28;20462;-78
2022/05/30 10:08:52;;;;;;;0.70;0.70;;;;;;;;;;5079384;28;20469;-80
2022/05/30 10:11:25;;;;;;;0.70;0.70;;;;;;;;;;5050668;28;20933;-79
2022/05/30 10:13:54;;;;;;;0.70;0.70;;;;;;;;;;5067529;28;20467;-79
2022/05/30 10:16:30;;;;;;;0.70;0.60;;;;;;;;;;5068010;28;20513;-79
2022/05/30 10:18:59;;;;;;;0.70;0.63;;;;;;;;;;5071876;28;20451;-78
2022/05/30 10:21:32;;;;;;;0.70;0.60;;;;;;;;;;5066300;28;20551;-78
2022/05/30 10:28:17;;;;;;;0.80;0.70;;;;;;;;;;5092637;28;20438;-77
2022/05/30 10:31:09;;;;;;;0.70;0.60;;;;;;;;;;5080349;28;20404;-77
2022/05/30 10:34:12;;;;;;;0.70;0.60;;;;;;;;;;5076268;28;20454;-80
2022/05/30 10:36:53;;;;;;;0.80;0.73;;;;;;;;;;5088226;28;21063;-79
2022/05/30 10:39:25;;;;;;;0.70;0.60;;;;;;;;;;5089261;28;20421;-75
2022/05/30 10:41:56;;;;;;;0.70;0.70;;;;;;;;;;5094334;28;20423;-78
2022/05/30 10:44:27;;;;;;;0.70;0.60;;;;;;;;;;5071320;28;20445;-77
2022/05/30 10:46:58;;;;;;;0.80;0.70;;;;;;;;;;5087815;28;20423;-79
2022/05/30 10:49:34;;;;;;;0.70;0.60;;;;;;;;;;5089864;28;20437;-79
2022/05/30 10:52:04;;;;;;;0.70;0.67;;;;;;;;;;5074403;28;20479;-79
2022/05/30 10:54:42;;;;;;;0.70;0.70;;;;;;;;;;5071075;28;20527;-79
2022/05/30 10:57:17;;;;;;;0.70;0.60;;;;;;;;;;5069079;28;20491;-78
2022/05/30 10:59:47;;;;;;;0.73;0.70;;;;;;;;;;5089089;28;20454;-78
2022/05/30 11:02:22;;;;;;;0.70;0.60;;;;;;;;;;5071958;28;20433;-79
2022/05/30 11:04:54;;;;;;;0.70;0.70;;;;;;;;;;5091521;28;20450;-78
2022/05/30 11:07:28;;;;;;;0.70;0.70;;;;;;;;;;5086143;28;20464;-78
2022/05/30 11:10:02;;;;;;;0.70;0.60;;;;;;;;;;5074508;28;20443;-78
2022/05/30 11:12:31;;;;;;;0.70;0.70;;;;;;;;;;5072245;28;20425;-79
2022/05/30 11:15:02;;;;;;;0.80;0.70;;;;;;;;;;5052703;28;20440;-77
2022/05/30 11:18:10;;;;;;;0.80;0.70;;;;;;;;;;5087137;28;20426;-77
2022/05/30 11:21:17;;;;;;;0.70;0.60;;;;;;;;;;5069378;28;20463;-79
2022/05/30 11:23:45;;;;;;;0.70;0.60;;;;;;;;;;5054289;28;20526;-78
2022/05/30 11:26:18;;;;;;;0.80;0.70;;;;;;;;;;5085912;28;20447;-78
2022/05/30 11:29:02;;;;;;;0.80;0.70;;;;;;;;;;5085252;28;20490;-76
2022/05/30 11:31:33;;;;;;;0.80;0.70;;;;;;;;;;5086355;28;20393;-77
2022/05/30 11:34:13;;;;;;;0.70;0.60;;;;;;;;;;5088849;28;20425;-79
2022/05/30 11:36:51;;;;;;;0.70;0.60;;;;;;;;;;5088153;28;20462;-78
2022/05/30 11:39:27;;;;;;;0.70;0.70;;;;;;;;;;5089089;28;20446;-78
2022/05/30 11:42:00;;;;;;;0.80;0.60;;;;;;;;;;5070924;28;20448;-79
2022/05/30 11:44:37;;;;;;;0.80;0.70;;;;;;;;;;5063966;28;20429;-78
2022/05/30 11:47:14;;;;;;;0.80;0.70;;;;;;;;;;5065170;28;20454;-79
2022/05/30 11:49:47;;;;;;;0.80;0.70;;;;;;;;;;5074800;28;20458;-79
2022/05/30 11:52:18;;;;;;;0.70;0.60;;;;;;;;;;5070519;28;20487;-79
2022/05/30 11:54:54;;;;;;;0.70;0.60;;;;;;;;;;5072590;28;20997;-80
2022/05/30 11:57:25;;;;;;;0.80;0.70;;;;;;;;;;5084870;28;20470;-77
2022/05/30 11:59:57;;;;;;;0.70;0.60;;;;;;;;;;5082876;28;20935;-79
2022/05/30 12:02:26;;;;;;;0.80;0.70;;;;;;;;;;5063755;28;20454;-77
2022/05/30 12:05:12;;;;;;;0.70;0.60;;;;;;;;;;5076562;28;20829;-76
2022/05/30 12:07:56;;;;;;;0.80;0.60;;;;;;;;;;5071230;28;20452;-79
2022/05/30 12:10:25;;;;;;;0.70;0.70;;;;;;;;;;5075727;28;20431;-76
2022/05/30 12:12:57;;;;;;;0.70;0.60;;;;;;;;;;5081850;28;20472;-77
2022/05/30 12:15:41;;;;;;;0.70;0.60;;;;;;;;;;5065038;28;20531;-76
2022/05/30 12:24:07;;;;;;;0.80;0.70;;;;;;;;;;5086674;28;20417;-78
2022/05/30 12:26:56;;;;;;;0.80;0.70;;;;;;;;;;5069259;28;20395;-75
2022/05/30 12:29:44;;;;;;;0.70;0.60;;;;;;;;;;5050556;28;20412;-75
2022/05/30 12:32:32;;;;;;;0.70;0.60;;;;;;;;;;5066367;28;20497;-75
2022/05/30 12:35:27;;;;;;;0.70;0.60;;;;;;;;;;5057065;28;20418;-75
2022/05/30 12:38:18;;;;;;;0.70;0.60;;;;;;;;;;5061866;28;20455;-76
2022/05/30 12:40:54;;;;;;;0.80;0.70;;;;;;;;;;5018825;28;20442;-75
2022/05/30 12:43:37;;;;;;;0.80;0.70;;;;;;;;;;5054767;28;20859;-75
2022/05/30 12:46:10;;;;;;;0.80;0.80;;;;;;;;;;5036960;28;20452;-75
2022/05/30 12:48:40;;;;;;;0.80;0.70;;;;;;;;;;5042026;28;20458;-74
2022/05/30 12:51:12;;;;;;;0.80;0.70;;;;;;;;;;5072533;28;20800;-75
2022/05/30 12:53:58;;;;;;;0.70;0.67;;;;;;;;;;5075506;28;20407;-75
2022/05/30 12:56:49;;;;;;;0.70;0.70;;;;;;;;;;5077605;28;20521;-74
2022/05/30 12:59:18;;;;;;;0.70;0.70;;;;;;;;;;5072485;28;20457;-74
2022/05/30 13:01:52;;;;;;;0.70;0.60;;;;;;;;;;5075510;28;20431;-73
2022/05/30 13:04:25;;;;;;;0.80;0.70;;;;;;;;;;5063919;28;20450;-75
2022/05/30 13:07:09;;;;;;;0.70;0.70;;;;;;;;;;5074758;28;20471;-75
2022/05/30 13:09:37;;;;;;;0.80;0.70;;;;;;;;;;5046350;28;20467;-77
2022/05/30 13:12:17;;;;;;;0.70;0.60;;;;;;;;;;5066339;28;20459;-76
2022/05/30 13:14:53;;;;;;;0.70;0.60;;;;;;;;;;5077464;28;20542;-78
2022/05/30 13:17:23;;;;;;;0.70;0.63;;;;;;;;;;5063352;28;20550;-77
2022/05/30 13:19:52;;;;;;;0.70;0.60;;;;;;;;;;5083053;28;20457;-79
2022/05/30 13:22:22;;;;;;;0.70;0.60;;;;;;;;;;5070141;28;20534;-78
2022/05/30 13:24:51;;;;;;;0.70;0.70;;;;;;;;;;5062698;28;20483;-78
2022/05/30 13:27:18;;;;;;;0.70;0.60;;;;;;;;;;5059703;28;20956;-73
2022/05/30 13:29:45;;;;;;;0.70;0.70;;;;;;;;;;5082225;28;20419;-75
2022/05/30 13:32:16;;;;;;;0.80;0.70;;;;;;;;;;5082047;28;20428;-75
2022/05/30 13:34:44;;;;;;;0.80;0.63;;;;;;;;;;5064726;28;20476;-78
2022/05/30 13:37:11;;;;;;;0.80;0.73;;;;;;;;;;5080236;28;20477;-77
2022/05/30 13:39:43;;;;;;;0.70;0.63;;;;;;;;;;5062735;28;20418;-75
2022/05/30 13:42:10;;;;;;;0.80;0.70;;;;;;;;;;5072617;28;20820;-76
2022/05/30 13:44:39;;;;;;;0.70;0.60;;;;;;;;;;5086831;28;20427;-75
2022/05/30 13:47:11;;;;;;;0.70;0.70;;;;;;;;;;5074392;28;20916;-75
2022/05/30 13:49:40;;;;;;;0.80;0.70;;;;;;;;;;5074145;28;20908;-77
2022/05/30 13:52:11;;;;;;;0.70;0.60;;;;;;;;;;5091498;28;20470;-76
2022/05/30 13:54:39;;;;;;;0.70;0.60;;;;;;;;;;5094176;28;20421;-74
2022/05/30 13:57:10;;;;;;;0.70;0.60;;;;;;;;;;5092783;28;20457;-76
2022/05/30 13:59:42;;;;;;;0.70;0.70;;;;;;;;;;5088902;28;20405;-76
2022/05/30 14:02:31;;;;;;;0.80;0.70;;;;;;;;;;5077938;28;20418;-74
2022/05/30 14:05:09;;;;;;;0.80;0.70;;;;;;;;;;5053416;28;20463;-74
2022/05/30 14:07:46;;;;;;;0.80;0.70;;;;;;;;;;5067187;28;20456;-75
2022/05/30 14:10:14;;;;;;;0.73;0.70;;;;;;;;;;5065484;28;20936;-76
2022/05/30 14:13:01;;;;;;;0.70;0.60;;;;;;;;;;5079587;28;20429;-76
2022/05/30 14:15:33;;;;;;;0.70;0.60;;;;;;;;;;5085461;28;20445;-75
2022/05/30 14:18:15;;;;;;;0.70;0.60;;;;;;;;;;5080122;28;20874;-76
2022/05/30 14:20:45;;;;;;;0.70;0.60;;;;;;;;;;5081189;28;20447;-75
2022/05/30 14:23:15;;;;;;;0.70;0.60;;;;;;;;;;5077890;28;20390;-76
2022/05/30 14:25:47;;;;;;;0.70;0.60;;;;;;;;;;5064254;28;20467;-75
2022/05/30 14:28:22;;;;;;;0.80;0.70;;;;;;;;;;5061436;28;20439;-75
2022/05/30 14:30:50;;;;;;;0.70;0.60;;;;;;;;;;5058813;28;20427;-76
2022/05/30 14:33:27;;;;;;;0.70;0.63;;;;;;;;;;5056140;28;20479;-75
2022/05/30 14:36:09;;;;;;;0.70;0.60;;;;;;;;;;5067120;28;20480;-75
2022/05/30 14:38:38;;;;;;;0.70;0.70;;;;;;;;;;5049462;28;20495;-76
2022/05/30 14:41:05;;;;;;;0.77;0.67;;;;;;;;;;5056030;28;20520;-78
2022/05/30 14:43:44;;;;;;;0.80;0.80;;;;;;;;;;5054437;28;20464;-76
2022/05/30 14:46:15;;;;;;;0.70;0.60;;;;;;;;;;5056032;28;20420;-76
2022/05/30 14:48:44;;;;;;;0.70;0.60;;;;;;;;;;5053181;28;20432;-74
2022/05/30 14:51:20;;;;;;;0.70;0.60;;;;;;;;;;5054293;28;20463;-75
2022/05/30 14:53:50;;;;;;;0.70;0.60;;;;;;;;;;5070467;28;20772;-76
2022/05/30 14:56:21;;;;;;;0.70;0.50;;;;;;;;;;5068807;28;20431;-76
2022/05/30 14:58:50;;;;;;;0.70;0.60;;;;;;;;;;5049430;28;20474;-75
2022/05/30 15:01:39;;;;;;;0.70;0.50;;;;;;;;;;5060834;28;20443;-75
2022/05/30 15:04:09;;;;;;;0.70;0.57;;;;;;;;;;5075444;28;20439;-76
2022/05/30 15:06:38;;;;;;;0.70;0.50;;;;;;;;;;5063873;28;20508;-76
2022/05/30 15:09:07;;;;;;;0.70;0.50;;;;;;;;;;5044201;28;20451;-77
2022/05/30 15:11:35;;;;;;;0.70;0.50;;;;;;;;;;5063662;28;20430;-74
2022/05/30 15:14:03;;;;;;;0.70;0.60;;;;;;;;;;5071445;28;20812;-76
2022/05/30 15:16:31;;;;;;;0.70;0.50;;;;;;;;;;5076011;28;21049;-74
2022/05/30 15:18:58;;;;;;;0.70;0.50;;;;;;;;;;5074511;28;20462;-76
2022/05/30 15:21:27;;;;;;;0.70;0.60;;;;;;;;;;5075316;28;20495;-75
2022/05/30 15:23:55;;;;;;;0.70;0.60;;;;;;;;;;5075582;28;20787;-73
2022/05/30 15:26:23;;;;;;;0.70;0.60;;;;;;;;;;5054242;28;20416;-75
2022/05/30 15:28:51;;;;;;;0.73;0.60;;;;;;;;;;5055254;28;20428;-75
2022/05/30 15:31:22;;;;;;;0.80;0.60;;;;;;;;;;5039612;28;20436;-76
2022/05/30 15:33:49;;;;;;;0.70;0.60;;;;;;;;;;5039199;28;20444;-76
2022/05/30 15:36:18;;;;;;;0.70;0.60;;;;;;;;;;5037656;28;20472;-74
2022/05/30 15:39:05;;;;;;;0.70;0.60;;;;;;;;;;5043599;28;20995;-75
2022/05/30 15:41:33;;;;;;;0.70;0.60;;;;;;;;;;5063477;28;20518;-75
2022/05/30 15:44:00;;;;;;;0.80;0.70;;;;;;;;;;5047991;28;20443;-76
2022/05/30 15:46:27;;;;;;;0.70;0.60;;;;;;;;;;5073871;28;20492;-76
2022/05/30 15:48:54;;;;;;;0.70;0.60;;;;;;;;;;5054937;28;20440;-75
2022/05/30 15:51:21;;;;;;;0.70;0.70;;;;;;;;;;5054192;28;21015;-76